sensor_id;sensor_type;location;lat;lon;timestamp;P1;durP1;ratioP1;P2;durP2;ratioP2
54123;SDS011;55741;53.252;5.788;2023-02-11T00:02:02;40.22;;;9.48;;
54123;SDS011;55741;53.252;5.788;2023-02-11T00:04:29;35.00;;;9.38;;
54123;SDS011;55741;53.252;5.788;2023-02-11T00:06:55;45.13;;;10.85;;
54123;SDS011;55741;53.252;5.788;2023-02-11T00:09:21;40.33;;;9.68;;
54123;SDS011;55741;53.252;5.788;2023-02-11T00:11:47;36.08;;;10.07;;
54123;SDS011;55741;53.252;5.788;2023-02-11T00:14:13;34.40;;;10.10;;
54123;SDS011;55741;53.252;5.788;2023-02-11T00:16:39;44.95;;;11.00;;
54123;SDS011;55741;53.252;5.788;2023-02-11T00:19:05;41.60;;;12.10;;
54123;SDS011;55741;53.252;5.788;2023-02-11T00:21:31;36.78;;;11.90;;
54123;SDS011;55741;53.252;5.788;2023-02-11T00:23:58;39.85;;;11.45;;
54123;SDS011;55741;53.252;5.788;2023-02-11T00:26:28;45.75;;;12.60;;
54123;SDS011;55741;53.252;5.788;2023-02-11T00:28:56;34.42;;;12.35;;
54123;SDS011;55741;53.252;5.788;2023-02-11T00:31:22;43.70;;;13.20;;
54123;SDS011;55741;53.252;5.788;2023-02-11T00:33:49;42.45;;;12.57;;
54123;SDS011;55741;53.252;5.788;2023-02-11T00:36:16;32.00;;;12.75;;
54123;SDS011;55741;53.252;5.788;2023-02-11T00:38:45;40.75;;;12.85;;
54123;SDS011;55741;53.252;5.788;2023-02-11T00:41:12;36.60;;;13.63;;
54123;SDS011;55741;53.252;5.788;2023-02-11T00:43:39;34.58;;;12.63;;
54123;SDS011;55741;53.252;5.788;2023-02-11T00:46:06;50.25;;;13.95;;
54123;SDS011;55741;53.252;5.788;2023-02-11T00:48:32;38.25;;;13.93;;
54123;SDS011;55741;53.252;5.788;2023-02-11T00:51:00;46.75;;;14.40;;
54123;SDS011;55741;53.252;5.788;2023-02-11T00:53:28;38.33;;;13.75;;
54123;SDS011;55741;53.252;5.788;2023-02-11T00:55:54;44.03;;;13.65;;
54123;SDS011;55741;53.252;5.788;2023-02-11T00:58:20;35.83;;;13.07;;
54123;SDS011;55741;53.252;5.788;2023-02-11T01:00:46;36.50;;;13.77;;
54123;SDS011;55741;53.252;5.788;2023-02-11T01:03:12;31.60;;;12.80;;
54123;SDS011;55741;53.252;5.788;2023-02-11T01:05:38;43.95;;;13.52;;
54123;SDS011;55741;53.252;5.788;2023-02-11T01:08:04;43.25;;;13.70;;
54123;SDS011;55741;53.252;5.788;2023-02-11T01:10:30;39.97;;;15.02;;
54123;SDS011;55741;53.252;5.788;2023-02-11T01:12:56;39.05;;;14.85;;
54123;SDS011;55741;53.252;5.788;2023-02-11T01:15:22;41.00;;;14.80;;
54123;SDS011;55741;53.252;5.788;2023-02-11T01:17:47;38.17;;;14.63;;
54123;SDS011;55741;53.252;5.788;2023-02-11T01:20:15;37.92;;;15.50;;
54123;SDS011;55741;53.252;5.788;2023-02-11T01:22:42;37.95;;;15.65;;
54123;SDS011;55741;53.252;5.788;2023-02-11T01:25:08;46.03;;;16.20;;
54123;SDS011;55741;53.252;5.788;2023-02-11T01:27:34;35.38;;;16.15;;
54123;SDS011;55741;53.252;5.788;2023-02-11T01:30:01;40.90;;;15.70;;
54123;SDS011;55741;53.252;5.788;2023-02-11T01:32:29;34.28;;;16.67;;
54123;SDS011;55741;53.252;5.788;2023-02-11T01:34:55;40.38;;;15.75;;
54123;SDS011;55741;53.252;5.788;2023-02-11T01:37:21;39.35;;;16.88;;
54123;SDS011;55741;53.252;5.788;2023-02-11T01:39:46;41.67;;;16.05;;
54123;SDS011;55741;53.252;5.788;2023-02-11T01:42:16;35.60;;;15.43;;
54123;SDS011;55741;53.252;5.788;2023-02-11T01:44:43;43.50;;;17.75;;
54123;SDS011;55741;53.252;5.788;2023-02-11T01:47:09;45.20;;;17.02;;
54123;SDS011;55741;53.252;5.788;2023-02-11T01:49:39;50.42;;;18.30;;
54123;SDS011;55741;53.252;5.788;2023-02-11T01:54:45;39.38;;;17.23;;
54123;SDS011;55741;53.252;5.788;2023-02-11T01:57:33;42.42;;;16.70;;
54123;SDS011;55741;53.252;5.788;2023-02-11T02:00:12;40.60;;;17.92;;
54123;SDS011;55741;53.252;5.788;2023-02-11T02:05:22;40.38;;;18.90;;
54123;SDS011;55741;53.252;5.788;2023-02-11T02:10:43;41.55;;;17.48;;
54123;SDS011;55741;53.252;5.788;2023-02-11T02:13:12;47.60;;;18.27;;
54123;SDS011;55741;53.252;5.788;2023-02-11T02:15:39;39.58;;;18.08;;
54123;SDS011;55741;53.252;5.788;2023-02-11T02:21:01;45.70;;;18.80;;
54123;SDS011;55741;53.252;5.788;2023-02-11T02:35:35;41.35;;;19.17;;
54123;SDS011;55741;53.252;5.788;2023-02-11T02:38:12;50.63;;;20.83;;
54123;SDS011;55741;53.252;5.788;2023-02-11T02:40:49;41.88;;;18.45;;
54123;SDS011;55741;53.252;5.788;2023-02-11T02:43:27;45.30;;;20.05;;
54123;SDS011;55741;53.252;5.788;2023-02-11T02:45:53;43.30;;;20.55;;
54123;SDS011;55741;53.252;5.788;2023-02-11T02:48:24;42.45;;;19.77;;
54123;SDS011;55741;53.252;5.788;2023-02-11T02:50:52;49.00;;;19.90;;
54123;SDS011;55741;53.252;5.788;2023-02-11T02:56:12;39.60;;;21.05;;
54123;SDS011;55741;53.252;5.788;2023-02-11T02:58:53;44.58;;;20.45;;
54123;SDS011;55741;53.252;5.788;2023-02-11T03:04:02;47.55;;;20.92;;
54123;SDS011;55741;53.252;5.788;2023-02-11T03:07:15;45.47;;;20.15;;
54123;SDS011;55741;53.252;5.788;2023-02-11T03:09:47;50.25;;;21.83;;
54123;SDS011;55741;53.252;5.788;2023-02-11T03:12:21;46.40;;;22.38;;
54123;SDS011;55741;53.252;5.788;2023-02-11T03:14:49;46.45;;;20.48;;
54123;SDS011;55741;53.252;5.788;2023-02-11T03:17:16;47.17;;;22.05;;
54123;SDS011;55741;53.252;5.788;2023-02-11T03:19:44;47.83;;;22.85;;
54123;SDS011;55741;53.252;5.788;2023-02-11T03:22:24;46.38;;;23.73;;
54123;SDS011;55741;53.252;5.788;2023-02-11T03:24:51;49.60;;;22.55;;
54123;SDS011;55741;53.252;5.788;2023-02-11T03:27:20;47.17;;;22.08;;
54123;SDS011;55741;53.252;5.788;2023-02-11T03:32:38;45.63;;;21.08;;
54123;SDS011;55741;53.252;5.788;2023-02-11T03:35:09;41.78;;;21.40;;
54123;SDS011;55741;53.252;5.788;2023-02-11T03:40:20;44.63;;;21.88;;
54123;SDS011;55741;53.252;5.788;2023-02-11T03:42:58;43.88;;;20.73;;
54123;SDS011;55741;53.252;5.788;2023-02-11T03:45:35;34.17;;;20.37;;
54123;SDS011;55741;53.252;5.788;2023-02-11T03:48:04;40.13;;;20.48;;
54123;SDS011;55741;53.252;5.788;2023-02-11T03:50:44;39.65;;;21.90;;
54123;SDS011;55741;53.252;5.788;2023-02-11T03:53:12;37.92;;;20.10;;
54123;SDS011;55741;53.252;5.788;2023-02-11T03:55:41;46.10;;;21.08;;
54123;SDS011;55741;53.252;5.788;2023-02-11T03:58:10;41.80;;;20.90;;
54123;SDS011;55741;53.252;5.788;2023-02-11T04:00:37;42.13;;;22.70;;
54123;SDS011;55741;53.252;5.788;2023-02-11T04:03:05;45.63;;;20.65;;
54123;SDS011;55741;53.252;5.788;2023-02-11T04:05:32;40.92;;;20.50;;
54123;SDS011;55741;53.252;5.788;2023-02-11T04:07:58;37.00;;;21.02;;
54123;SDS011;55741;53.252;5.788;2023-02-11T04:10:24;40.67;;;20.60;;
54123;SDS011;55741;53.252;5.788;2023-02-11T04:12:49;46.53;;;20.52;;
54123;SDS011;55741;53.252;5.788;2023-02-11T04:15:15;36.42;;;20.20;;
54123;SDS011;55741;53.252;5.788;2023-02-11T04:17:41;42.08;;;20.77;;
54123;SDS011;55741;53.252;5.788;2023-02-11T04:20:07;41.60;;;21.60;;
54123;SDS011;55741;53.252;5.788;2023-02-11T04:22:34;43.13;;;21.60;;
54123;SDS011;55741;53.252;5.788;2023-02-11T04:25:00;33.47;;;20.70;;
54123;SDS011;55741;53.252;5.788;2023-02-11T04:27:26;47.90;;;20.52;;
54123;SDS011;55741;53.252;5.788;2023-02-11T04:29:52;45.40;;;19.15;;
54123;SDS011;55741;53.252;5.788;2023-02-11T04:32:18;38.00;;;19.65;;
54123;SDS011;55741;53.252;5.788;2023-02-11T04:34:44;38.95;;;20.88;;
54123;SDS011;55741;53.252;5.788;2023-02-11T04:37:10;38.75;;;19.20;;
54123;SDS011;55741;53.252;5.788;2023-02-11T04:39:35;37.65;;;18.50;;
54123;SDS011;55741;53.252;5.788;2023-02-11T04:42:01;34.70;;;19.13;;
54123;SDS011;55741;53.252;5.788;2023-02-11T04:44:27;31.63;;;18.35;;
54123;SDS011;55741;53.252;5.788;2023-02-11T04:46:53;34.28;;;17.05;;
54123;SDS011;55741;53.252;5.788;2023-02-11T04:49:19;40.03;;;19.25;;
54123;SDS011;55741;53.252;5.788;2023-02-11T04:51:45;41.45;;;19.73;;
54123;SDS011;55741;53.252;5.788;2023-02-11T04:54:10;36.53;;;17.63;;
54123;SDS011;55741;53.252;5.788;2023-02-11T04:56:38;36.67;;;18.52;;
54123;SDS011;55741;53.252;5.788;2023-02-11T04:59:04;36.63;;;19.10;;
54123;SDS011;55741;53.252;5.788;2023-02-11T05:01:30;48.03;;;19.58;;
54123;SDS011;55741;53.252;5.788;2023-02-11T05:03:56;36.40;;;19.52;;
54123;SDS011;55741;53.252;5.788;2023-02-11T05:06:22;38.85;;;19.27;;
54123;SDS011;55741;53.252;5.788;2023-02-11T05:08:48;32.70;;;18.85;;
54123;SDS011;55741;53.252;5.788;2023-02-11T05:11:15;37.83;;;19.17;;
54123;SDS011;55741;53.252;5.788;2023-02-11T05:13:46;37.53;;;19.30;;
54123;SDS011;55741;53.252;5.788;2023-02-11T05:16:12;33.92;;;19.75;;
54123;SDS011;55741;53.252;5.788;2023-02-11T05:18:39;35.50;;;19.67;;
54123;SDS011;55741;53.252;5.788;2023-02-11T05:21:07;39.55;;;21.17;;
54123;SDS011;55741;53.252;5.788;2023-02-11T05:23:33;44.92;;;21.08;;
54123;SDS011;55741;53.252;5.788;2023-02-11T05:26:00;38.03;;;20.10;;
54123;SDS011;55741;53.252;5.788;2023-02-11T05:28:27;37.55;;;20.63;;
54123;SDS011;55741;53.252;5.788;2023-02-11T05:30:53;41.92;;;21.50;;
54123;SDS011;55741;53.252;5.788;2023-02-11T05:33:19;37.40;;;19.60;;
54123;SDS011;55741;53.252;5.788;2023-02-11T05:35:45;43.50;;;22.45;;
54123;SDS011;55741;53.252;5.788;2023-02-11T05:38:11;42.15;;;21.90;;
54123;SDS011;55741;53.252;5.788;2023-02-11T05:40:38;36.00;;;21.80;;
54123;SDS011;55741;53.252;5.788;2023-02-11T05:43:04;39.38;;;22.13;;
54123;SDS011;55741;53.252;5.788;2023-02-11T05:45:31;43.40;;;22.58;;
54123;SDS011;55741;53.252;5.788;2023-02-11T05:47:57;41.03;;;22.20;;
54123;SDS011;55741;53.252;5.788;2023-02-11T05:50:24;36.40;;;22.65;;
54123;SDS011;55741;53.252;5.788;2023-02-11T05:52:50;40.83;;;21.50;;
54123;SDS011;55741;53.252;5.788;2023-02-11T05:55:16;45.55;;;23.52;;
54123;SDS011;55741;53.252;5.788;2023-02-11T05:57:43;36.03;;;21.90;;
54123;SDS011;55741;53.252;5.788;2023-02-11T06:00:09;47.22;;;22.17;;
54123;SDS011;55741;53.252;5.788;2023-02-11T06:02:36;40.25;;;21.52;;
54123;SDS011;55741;53.252;5.788;2023-02-11T06:05:01;46.72;;;21.33;;
54123;SDS011;55741;53.252;5.788;2023-02-11T06:07:27;48.70;;;23.02;;
54123;SDS011;55741;53.252;5.788;2023-02-11T06:09:53;41.25;;;21.83;;
54123;SDS011;55741;53.252;5.788;2023-02-11T06:12:19;40.83;;;20.52;;
54123;SDS011;55741;53.252;5.788;2023-02-11T06:14:45;36.63;;;20.52;;
54123;SDS011;55741;53.252;5.788;2023-02-11T06:17:10;40.80;;;21.10;;
54123;SDS011;55741;53.252;5.788;2023-02-11T06:19:36;43.60;;;22.48;;
54123;SDS011;55741;53.252;5.788;2023-02-11T06:22:02;44.92;;;22.13;;
54123;SDS011;55741;53.252;5.788;2023-02-11T06:24:28;39.60;;;20.17;;
54123;SDS011;55741;53.252;5.788;2023-02-11T06:26:54;40.35;;;21.33;;
54123;SDS011;55741;53.252;5.788;2023-02-11T06:29:19;42.25;;;20.80;;
54123;SDS011;55741;53.252;5.788;2023-02-11T06:31:45;43.58;;;21.80;;
54123;SDS011;55741;53.252;5.788;2023-02-11T06:34:11;39.60;;;21.63;;
54123;SDS011;55741;53.252;5.788;2023-02-11T06:36:37;54.28;;;22.17;;
54123;SDS011;55741;53.252;5.788;2023-02-11T06:39:05;38.60;;;21.98;;
54123;SDS011;55741;53.252;5.788;2023-02-11T06:41:31;41.05;;;22.52;;
54123;SDS011;55741;53.252;5.788;2023-02-11T06:43:57;45.10;;;22.33;;
54123;SDS011;55741;53.252;5.788;2023-02-11T06:46:23;48.38;;;20.65;;
54123;SDS011;55741;53.252;5.788;2023-02-11T06:48:49;36.80;;;21.13;;
54123;SDS011;55741;53.252;5.788;2023-02-11T06:51:15;42.38;;;20.90;;
54123;SDS011;55741;53.252;5.788;2023-02-11T06:53:42;42.42;;;21.25;;
54123;SDS011;55741;53.252;5.788;2023-02-11T06:56:10;44.78;;;21.58;;
54123;SDS011;55741;53.252;5.788;2023-02-11T06:58:39;46.22;;;21.38;;
54123;SDS011;55741;53.252;5.788;2023-02-11T07:01:06;43.50;;;20.10;;
54123;SDS011;55741;53.252;5.788;2023-02-11T07:03:34;45.10;;;20.95;;
54123;SDS011;55741;53.252;5.788;2023-02-11T07:06:02;49.72;;;21.33;;
54123;SDS011;55741;53.252;5.788;2023-02-11T07:08:29;36.55;;;20.70;;
54123;SDS011;55741;53.252;5.788;2023-02-11T07:10:57;46.33;;;20.25;;
54123;SDS011;55741;53.252;5.788;2023-02-11T07:13:22;38.67;;;21.35;;
54123;SDS011;55741;53.252;5.788;2023-02-11T07:15:48;43.35;;;20.17;;
54123;SDS011;55741;53.252;5.788;2023-02-11T07:18:14;41.60;;;21.38;;
54123;SDS011;55741;53.252;5.788;2023-02-11T07:20:40;42.35;;;19.63;;
54123;SDS011;55741;53.252;5.788;2023-02-11T07:23:06;54.67;;;22.20;;
54123;SDS011;55741;53.252;5.788;2023-02-11T07:25:32;44.35;;;21.40;;
54123;SDS011;55741;53.252;5.788;2023-02-11T07:27:59;42.58;;;21.55;;
54123;SDS011;55741;53.252;5.788;2023-02-11T07:30:25;52.92;;;21.92;;
54123;SDS011;55741;53.252;5.788;2023-02-11T07:32:51;41.53;;;21.30;;
54123;SDS011;55741;53.252;5.788;2023-02-11T07:35:16;40.65;;;20.70;;
54123;SDS011;55741;53.252;5.788;2023-02-11T07:37:42;47.05;;;21.40;;
54123;SDS011;55741;53.252;5.788;2023-02-11T07:40:08;50.03;;;20.58;;
54123;SDS011;55741;53.252;5.788;2023-02-11T07:42:34;48.13;;;20.70;;
54123;SDS011;55741;53.252;5.788;2023-02-11T07:45:00;40.08;;;19.77;;
54123;SDS011;55741;53.252;5.788;2023-02-11T07:47:26;46.60;;;21.17;;
54123;SDS011;55741;53.252;5.788;2023-02-11T07:49:52;42.05;;;20.60;;
54123;SDS011;55741;53.252;5.788;2023-02-11T07:52:18;37.72;;;18.90;;
54123;SDS011;55741;53.252;5.788;2023-02-11T07:54:44;38.83;;;18.30;;
54123;SDS011;55741;53.252;5.788;2023-02-11T07:57:12;37.13;;;18.20;;
54123;SDS011;55741;53.252;5.788;2023-02-11T07:59:39;37.67;;;17.75;;
54123;SDS011;55741;53.252;5.788;2023-02-11T08:02:05;41.35;;;17.92;;
54123;SDS011;55741;53.252;5.788;2023-02-11T08:04:31;39.88;;;18.52;;
54123;SDS011;55741;53.252;5.788;2023-02-11T08:06:57;40.45;;;18.00;;
54123;SDS011;55741;53.252;5.788;2023-02-11T08:09:23;46.78;;;18.38;;
54123;SDS011;55741;53.252;5.788;2023-02-11T08:11:49;34.55;;;17.10;;
54123;SDS011;55741;53.252;5.788;2023-02-11T08:14:15;35.00;;;17.63;;
54123;SDS011;55741;53.252;5.788;2023-02-11T08:16:40;43.53;;;17.05;;
54123;SDS011;55741;53.252;5.788;2023-02-11T08:19:11;37.38;;;17.45;;
54123;SDS011;55741;53.252;5.788;2023-02-11T08:21:39;35.47;;;17.05;;
54123;SDS011;55741;53.252;5.788;2023-02-11T08:24:05;41.03;;;17.75;;
54123;SDS011;55741;53.252;5.788;2023-02-11T08:26:31;45.45;;;16.98;;
54123;SDS011;55741;53.252;5.788;2023-02-11T08:28:59;44.63;;;18.45;;
54123;SDS011;55741;53.252;5.788;2023-02-11T08:31:28;39.72;;;16.95;;
54123;SDS011;55741;53.252;5.788;2023-02-11T08:33:57;35.38;;;15.50;;
54123;SDS011;55741;53.252;5.788;2023-02-11T08:36:32;45.75;;;17.05;;
54123;SDS011;55741;53.252;5.788;2023-02-11T08:39:01;32.85;;;14.98;;
54123;SDS011;55741;53.252;5.788;2023-02-11T08:41:29;33.03;;;15.38;;
54123;SDS011;55741;53.252;5.788;2023-02-11T08:43:56;34.92;;;15.27;;
54123;SDS011;55741;53.252;5.788;2023-02-11T08:46:22;33.15;;;15.65;;
54123;SDS011;55741;53.252;5.788;2023-02-11T08:48:47;35.33;;;15.27;;
54123;SDS011;55741;53.252;5.788;2023-02-11T08:51:15;42.10;;;14.45;;
54123;SDS011;55741;53.252;5.788;2023-02-11T08:53:57;35.00;;;13.80;;
54123;SDS011;55741;53.252;5.788;2023-02-11T08:56:24;39.13;;;14.13;;
54123;SDS011;55741;53.252;5.788;2023-02-11T08:58:50;28.98;;;14.95;;
54123;SDS011;55741;53.252;5.788;2023-02-11T09:01:26;28.25;;;12.57;;
54123;SDS011;55741;53.252;5.788;2023-02-11T09:03:53;39.15;;;13.60;;
54123;SDS011;55741;53.252;5.788;2023-02-11T09:06:20;33.15;;;13.07;;
54123;SDS011;55741;53.252;5.788;2023-02-11T09:08:47;41.90;;;13.55;;
54123;SDS011;55741;53.252;5.788;2023-02-11T09:11:15;43.47;;;12.43;;
54123;SDS011;55741;53.252;5.788;2023-02-11T09:13:43;27.45;;;12.13;;
54123;SDS011;55741;53.252;5.788;2023-02-11T09:16:15;34.25;;;11.98;;
54123;SDS011;55741;53.252;5.788;2023-02-11T09:18:45;32.78;;;12.10;;
54123;SDS011;55741;53.252;5.788;2023-02-11T09:21:12;37.90;;;12.30;;
54123;SDS011;55741;53.252;5.788;2023-02-11T09:23:40;30.83;;;11.77;;
54123;SDS011;55741;53.252;5.788;2023-02-11T09:26:11;32.30;;;12.05;;
54123;SDS011;55741;53.252;5.788;2023-02-11T09:28:40;30.98;;;10.40;;
54123;SDS011;55741;53.252;5.788;2023-02-11T09:31:06;32.85;;;12.00;;
54123;SDS011;55741;53.252;5.788;2023-02-11T09:33:33;29.48;;;11.07;;
54123;SDS011;55741;53.252;5.788;2023-02-11T09:36:00;29.98;;;10.65;;
54123;SDS011;55741;53.252;5.788;2023-02-11T09:38:27;34.47;;;10.82;;
54123;SDS011;55741;53.252;5.788;2023-02-11T09:40:53;30.77;;;11.00;;
54123;SDS011;55741;53.252;5.788;2023-02-11T09:43:20;28.73;;;10.85;;
54123;SDS011;55741;53.252;5.788;2023-02-11T09:45:48;29.98;;;9.30;;
54123;SDS011;55741;53.252;5.788;2023-02-11T09:48:19;29.95;;;8.80;;
54123;SDS011;55741;53.252;5.788;2023-02-11T09:50:47;30.50;;;9.68;;
54123;SDS011;55741;53.252;5.788;2023-02-11T09:53:28;28.00;;;8.52;;
54123;SDS011;55741;53.252;5.788;2023-02-11T09:55:58;31.55;;;10.35;;
54123;SDS011;55741;53.252;5.788;2023-02-11T09:58:26;30.35;;;10.70;;
54123;SDS011;55741;53.252;5.788;2023-02-11T10:01:38;24.10;;;8.23;;
54123;SDS011;55741;53.252;5.788;2023-02-11T10:06:53;22.17;;;8.73;;
54123;SDS011;55741;53.252;5.788;2023-02-11T10:09:36;30.02;;;7.65;;
54123;SDS011;55741;53.252;5.788;2023-02-11T10:15:04;24.13;;;7.00;;
54123;SDS011;55741;53.252;5.788;2023-02-11T10:17:39;26.63;;;7.85;;
54123;SDS011;55741;53.252;5.788;2023-02-11T10:23:24;26.30;;;6.78;;
54123;SDS011;55741;53.252;5.788;2023-02-11T10:25:53;26.10;;;7.20;;
54123;SDS011;55741;53.252;5.788;2023-02-11T10:28:22;26.77;;;7.32;;
54123;SDS011;55741;53.252;5.788;2023-02-11T10:33:29;35.78;;;8.02;;
54123;SDS011;55741;53.252;5.788;2023-02-11T10:35:58;31.95;;;6.93;;
54123;SDS011;55741;53.252;5.788;2023-02-11T10:38:24;31.25;;;8.02;;
54123;SDS011;55741;53.252;5.788;2023-02-11T10:40:52;29.45;;;6.60;;
54123;SDS011;55741;53.252;5.788;2023-02-11T10:43:18;27.08;;;6.15;;
54123;SDS011;55741;53.252;5.788;2023-02-11T10:45:49;29.33;;;7.10;;
54123;SDS011;55741;53.252;5.788;2023-02-11T10:51:07;21.25;;;5.78;;
54123;SDS011;55741;53.252;5.788;2023-02-11T10:53:39;22.92;;;6.18;;
54123;SDS011;55741;53.252;5.788;2023-02-11T10:56:06;23.55;;;6.22;;
54123;SDS011;55741;53.252;5.788;2023-02-11T10:58:52;22.52;;;6.05;;
54123;SDS011;55741;53.252;5.788;2023-02-11T11:01:21;27.90;;;6.20;;
54123;SDS011;55741;53.252;5.788;2023-02-11T11:03:49;27.48;;;5.95;;
54123;SDS011;55741;53.252;5.788;2023-02-11T11:06:27;17.63;;;4.82;;
54123;SDS011;55741;53.252;5.788;2023-02-11T11:08:55;19.73;;;5.60;;
54123;SDS011;55741;53.252;5.788;2023-02-11T11:11:22;22.10;;;7.35;;
54123;SDS011;55741;53.252;5.788;2023-02-11T11:18:47;23.55;;;5.35;;
54123;SDS011;55741;53.252;5.788;2023-02-11T11:21:17;25.52;;;5.18;;
54123;SDS011;55741;53.252;5.788;2023-02-11T11:23:58;19.02;;;4.88;;
54123;SDS011;55741;53.252;5.788;2023-02-11T11:26:27;22.58;;;4.57;;
54123;SDS011;55741;53.252;5.788;2023-02-11T11:29:09;26.40;;;4.93;;
54123;SDS011;55741;53.252;5.788;2023-02-11T11:31:53;17.42;;;4.97;;
54123;SDS011;55741;53.252;5.788;2023-02-11T11:36:59;23.08;;;5.47;;
54123;SDS011;55741;53.252;5.788;2023-02-11T11:52:31;22.30;;;4.53;;
54123;SDS011;55741;53.252;5.788;2023-02-11T11:55:18;18.33;;;4.13;;
54123;SDS011;55741;53.252;5.788;2023-02-11T11:58:09;24.20;;;4.93;;
54123;SDS011;55741;53.252;5.788;2023-02-11T12:11:33;18.90;;;4.68;;
54123;SDS011;55741;53.252;5.788;2023-02-11T12:17:10;23.42;;;5.13;;
54123;SDS011;55741;53.252;5.788;2023-02-11T12:25:53;18.25;;;4.15;;
54123;SDS011;55741;53.252;5.788;2023-02-11T12:39:23;15.65;;;3.30;;
54123;SDS011;55741;53.252;5.788;2023-02-11T12:50:16;18.90;;;4.13;;
54123;SDS011;55741;53.252;5.788;2023-02-11T12:52:54;22.67;;;3.73;;
54123;SDS011;55741;53.252;5.788;2023-02-11T12:55:44;27.58;;;4.53;;
54123;SDS011;55741;53.252;5.788;2023-02-11T12:58:14;19.33;;;4.22;;
54123;SDS011;55741;53.252;5.788;2023-02-11T13:00:54;18.55;;;3.75;;
54123;SDS011;55741;53.252;5.788;2023-02-11T13:06:02;20.73;;;4.00;;
54123;SDS011;55741;53.252;5.788;2023-02-11T13:08:37;18.35;;;3.80;;
54123;SDS011;55741;53.252;5.788;2023-02-11T13:11:11;15.82;;;3.75;;
54123;SDS011;55741;53.252;5.788;2023-02-11T13:22:04;17.58;;;3.60;;
54123;SDS011;55741;53.252;5.788;2023-02-11T13:24:59;18.70;;;3.92;;
54123;SDS011;55741;53.252;5.788;2023-02-11T13:27:37;17.73;;;3.42;;
54123;SDS011;55741;53.252;5.788;2023-02-11T13:35:39;18.17;;;5.32;;
54123;SDS011;55741;53.252;5.788;2023-02-11T13:38:19;23.65;;;4.78;;
54123;SDS011;55741;53.252;5.788;2023-02-11T13:43:32;17.20;;;2.90;;
54123;SDS011;55741;53.252;5.788;2023-02-11T13:46:03;22.38;;;4.20;;
54123;SDS011;55741;53.252;5.788;2023-02-11T13:48:48;23.20;;;3.28;;
54123;SDS011;55741;53.252;5.788;2023-02-11T13:51:18;22.38;;;4.50;;
54123;SDS011;55741;53.252;5.788;2023-02-11T13:53:59;17.92;;;3.42;;
54123;SDS011;55741;53.252;5.788;2023-02-11T13:56:29;22.15;;;4.20;;
54123;SDS011;55741;53.252;5.788;2023-02-11T13:59:05;17.02;;;3.47;;
54123;SDS011;55741;53.252;5.788;2023-02-11T14:10:56;16.75;;;3.38;;
54123;SDS011;55741;53.252;5.788;2023-02-11T14:16:02;21.45;;;4.25;;
54123;SDS011;55741;53.252;5.788;2023-02-11T14:23:52;24.73;;;4.10;;
54123;SDS011;55741;53.252;5.788;2023-02-11T14:26:58;17.60;;;3.25;;
54123;SDS011;55741;53.252;5.788;2023-02-11T14:40:28;20.20;;;4.03;;
54123;SDS011;55741;53.252;5.788;2023-02-11T14:43:12;18.58;;;4.50;;
54123;SDS011;55741;53.252;5.788;2023-02-11T14:45:44;22.23;;;3.65;;
54123;SDS011;55741;53.252;5.788;2023-02-11T14:48:15;20.98;;;4.55;;
54123;SDS011;55741;53.252;5.788;2023-02-11T14:53:16;25.63;;;3.53;;
54123;SDS011;55741;53.252;5.788;2023-02-11T14:55:46;15.48;;;4.28;;
54123;SDS011;55741;53.252;5.788;2023-02-11T14:58:18;19.20;;;3.50;;
54123;SDS011;55741;53.252;5.788;2023-02-11T15:00:53;21.27;;;3.95;;
54123;SDS011;55741;53.252;5.788;2023-02-11T15:03:29;22.77;;;4.03;;
54123;SDS011;55741;53.252;5.788;2023-02-11T15:06:00;15.80;;;2.95;;
54123;SDS011;55741;53.252;5.788;2023-02-11T15:08:47;18.48;;;3.53;;
54123;SDS011;55741;53.252;5.788;2023-02-11T15:11:19;17.75;;;3.17;;
54123;SDS011;55741;53.252;5.788;2023-02-11T15:13:47;16.98;;;3.17;;
54123;SDS011;55741;53.252;5.788;2023-02-11T15:16:19;15.27;;;3.47;;
54123;SDS011;55741;53.252;5.788;2023-02-11T15:18:48;21.98;;;3.88;;
54123;SDS011;55741;53.252;5.788;2023-02-11T15:21:19;15.30;;;3.20;;
54123;SDS011;55741;53.252;5.788;2023-02-11T15:26:23;20.30;;;3.67;;
54123;SDS011;55741;53.252;5.788;2023-02-11T15:28:48;15.82;;;3.00;;
54123;SDS011;55741;53.252;5.788;2023-02-11T15:31:17;18.88;;;4.07;;
54123;SDS011;55741;53.252;5.788;2023-02-11T15:33:45;23.50;;;4.65;;
54123;SDS011;55741;53.252;5.788;2023-02-11T15:36:11;19.33;;;3.47;;
54123;SDS011;55741;53.252;5.788;2023-02-11T15:38:38;29.20;;;4.30;;
54123;SDS011;55741;53.252;5.788;2023-02-11T15:41:05;20.75;;;4.13;;
54123;SDS011;55741;53.252;5.788;2023-02-11T15:43:45;18.02;;;3.40;;
54123;SDS011;55741;53.252;5.788;2023-02-11T15:46:13;24.00;;;4.70;;
54123;SDS011;55741;53.252;5.788;2023-02-11T15:48:44;22.55;;;5.50;;
54123;SDS011;55741;53.252;5.788;2023-02-11T15:51:20;20.20;;;4.35;;
54123;SDS011;55741;53.252;5.788;2023-02-11T15:53:54;21.52;;;3.72;;
54123;SDS011;55741;53.252;5.788;2023-02-11T15:56:24;24.38;;;5.32;;
54123;SDS011;55741;53.252;5.788;2023-02-11T15:58:55;18.58;;;3.78;;
54123;SDS011;55741;53.252;5.788;2023-02-11T16:01:27;24.67;;;4.03;;
54123;SDS011;55741;53.252;5.788;2023-02-11T16:03:55;19.55;;;2.97;;
54123;SDS011;55741;53.252;5.788;2023-02-11T16:06:40;19.65;;;3.67;;
54123;SDS011;55741;53.252;5.788;2023-02-11T16:11:55;24.05;;;4.32;;
54123;SDS011;55741;53.252;5.788;2023-02-11T16:14:29;22.00;;;5.40;;
54123;SDS011;55741;53.252;5.788;2023-02-11T16:17:07;18.20;;;3.50;;
54123;SDS011;55741;53.252;5.788;2023-02-11T16:19:41;17.58;;;2.90;;
54123;SDS011;55741;53.252;5.788;2023-02-11T16:22:09;20.48;;;3.70;;
54123;SDS011;55741;53.252;5.788;2023-02-11T16:24:39;26.40;;;4.10;;
54123;SDS011;55741;53.252;5.788;2023-02-11T16:27:07;18.98;;;3.63;;
54123;SDS011;55741;53.252;5.788;2023-02-11T16:29:48;22.30;;;3.70;;
54123;SDS011;55741;53.252;5.788;2023-02-11T16:32:16;22.85;;;3.55;;
54123;SDS011;55741;53.252;5.788;2023-02-11T16:34:43;24.45;;;3.88;;
54123;SDS011;55741;53.252;5.788;2023-02-11T16:37:09;20.27;;;4.13;;
54123;SDS011;55741;53.252;5.788;2023-02-11T16:39:35;18.08;;;4.00;;
54123;SDS011;55741;53.252;5.788;2023-02-11T16:42:01;19.92;;;3.80;;
54123;SDS011;55741;53.252;5.788;2023-02-11T16:44:27;19.40;;;3.50;;
54123;SDS011;55741;53.252;5.788;2023-02-11T16:46:54;17.75;;;3.45;;
54123;SDS011;55741;53.252;5.788;2023-02-11T16:49:24;26.02;;;4.57;;
54123;SDS011;55741;53.252;5.788;2023-02-11T16:51:54;22.13;;;4.47;;
54123;SDS011;55741;53.252;5.788;2023-02-11T16:54:25;21.30;;;4.40;;
54123;SDS011;55741;53.252;5.788;2023-02-11T16:56:52;22.75;;;5.18;;
54123;SDS011;55741;53.252;5.788;2023-02-11T16:59:19;25.77;;;5.40;;
54123;SDS011;55741;53.252;5.788;2023-02-11T17:01:45;30.63;;;6.60;;
54123;SDS011;55741;53.252;5.788;2023-02-11T17:04:45;29.95;;;6.97;;
54123;SDS011;55741;53.252;5.788;2023-02-11T17:07:04;26.88;;;5.63;;
54123;SDS011;55741;53.252;5.788;2023-02-11T17:09:30;26.55;;;6.93;;
54123;SDS011;55741;53.252;5.788;2023-02-11T17:11:57;25.80;;;7.78;;
54123;SDS011;55741;53.252;5.788;2023-02-11T17:14:24;26.58;;;6.72;;
54123;SDS011;55741;53.252;5.788;2023-02-11T17:16:50;24.80;;;5.80;;
54123;SDS011;55741;53.252;5.788;2023-02-11T17:19:16;25.95;;;6.35;;
54123;SDS011;55741;53.252;5.788;2023-02-11T17:21:45;25.42;;;6.20;;
54123;SDS011;55741;53.252;5.788;2023-02-11T17:24:13;29.10;;;6.40;;